Terminal Aerodrome Forecast
Issued by NWS

Home | Current Version | Previous Version | Text Only | Print | Product List | Glossary On
Versions: 1 2 3 4 5 6 7 8 9 10 11 12 13 14 15 16 17 18
230
FTUS45 KVEF 061732
TAFHND
TAF
KHND 061732Z 0618/0718 21004KT P6SM SCT100 SCT200
     FM062000 19006KT P6SM VCTS SCT050 BKN080CB BKN200
     FM070000 21013KT P6SM SCT090 BKN200
     FM071200 20011KT P6SM BKN250=

USA.gov is the U.S. government's official web portal to all federal, state and local government web resources and services.